Jangho Young — DSFY2 — position and weather

sailwx.info

Track history (hours):
 
Tides and Currents Weather Stations Pressure Air Temp Water Temp Dewpoint Dewpoint Depression Visibility Wind Speed Wind Dir Waves Ship Positions

Jangho Young

Last reported at 2018-Jan-19 00:49 UTC. Time now 2018-Jan-19 01:24 UTC.
Position N 34°09' E 135°11'.

Length 60 m; draft 4.3 m.

Type: Cargo ship. MMSI: 441245000.

Date/timePositionNaut miles runAvg speedWind from/ knotsBaromVisibWave heightAir tempDewpointWater temp
2018-Jan-19 00:49N 34°09' E 135°11'0 0.0
2018-Jan-19 00:28N 34°09' E 135°11'0 0.0
2018-Jan-18 23:58N 34°09' E 135°11'0 0.1
2018-Jan-18 23:22N 34°09' E 135°12'0 0.1
2018-Jan-18 22:58N 34°09' E 135°11'0 0.0
2018-Jan-18 22:28N 34°09' E 135°11'0 0.0
2018-Jan-18 21:58N 34°09' E 135°11'0 0.0
2018-Jan-18 21:25N 34°09' E 135°11'0 0.0
2018-Jan-18 20:55N 34°09' E 135°11'0 0.0
2018-Jan-18 20:22N 34°09' E 135°11'0 0.0
2018-Jan-18 19:58N 34°09' E 135°11'0 0.0
2018-Jan-18 19:22N 34°09' E 135°11'0 0.0
2018-Jan-18 18:55N 34°09' E 135°11'0 0.0
2018-Jan-18 18:28N 34°09' E 135°11'0 0.0
2018-Jan-18 17:58N 34°09' E 135°11'0 0.0
2018-Jan-18 17:28N 34°09' E 135°11'0 0.0
2018-Jan-18 16:58N 34°09' E 135°11'0 0.0
2018-Jan-18 16:28N 34°09' E 135°11'0 0.0
2018-Jan-18 15:58N 34°09' E 135°11'0 0.0
2018-Jan-18 15:28N 34°09' E 135°11'0 0.0
2018-Jan-18 14:58N 34°09' E 135°11'0 0.0
2018-Jan-18 14:28N 34°09' E 135°11'0 0.0
2018-Jan-18 13:58N 34°09' E 135°11'0 0.0
2018-Jan-18 13:28N 34°09' E 135°11'0 0.0
2018-Jan-18 12:58N 34°09' E 135°11'0 0.0
2018-Jan-18 12:28N 34°09' E 135°11'0 0.0
2018-Jan-18 11:46N 34°09' E 135°11'0 0.0
2018-Jan-18 11:28N 34°09' E 135°11'0 0.0
2018-Jan-18 10:58N 34°09' E 135°11'0 0.0
2018-Jan-18 10:28N 34°09' E 135°11'0 0.0
2018-Jan-18 09:58N 34°09' E 135°11'0 0.0
2018-Jan-18 09:28N 34°09' E 135°11'0 0.0
2018-Jan-18 08:58N 34°09' E 135°11'0 0.0
2018-Jan-18 08:28N 34°09' E 135°11'0 0.0
2018-Jan-18 07:58N 34°09' E 135°11'0 0.0
2018-Jan-18 07:22N 34°09' E 135°11'0 0.0
2018-Jan-18 06:58N 34°09' E 135°11'0 0.0
2018-Jan-18 06:10N 34°09' E 135°11'0 0.0
2018-Jan-18 05:58N 34°09' E 135°11'0 0.0
2018-Jan-18 05:28N 34°09' E 135°11'0 0.0
2018-Jan-18 04:40N 34°09' E 135°11'0 0.0
2018-Jan-18 04:25N 34°09' E 135°11'0 0.0
2018-Jan-18 03:49N 34°09' E 135°11'0 0.0
2018-Jan-18 03:25N 34°09' E 135°11'0 0.0
2018-Jan-18 02:49N 34°09' E 135°11'0 0.0
2018-Jan-18 02:25N 34°09' E 135°11'0 0.0
2018-Jan-18 01:49N 34°09' E 135°11'0 0.0
2018-Jan-18 01:25N 34°09' E 135°11'0 0.0
2018-Jan-18 00:25N 34°09' E 135°11'0 0.0
2018-Jan-17 23:49N 34°09' E 135°11'  
2018-Jan-12 15:00N 34°08' E 135°07'4 7.5
2018-Jan-12 14:30N 34°08' E 135°02'4 8.3
2018-Jan-12 14:00N 34°08' E 134°57'4 8.6
2018-Jan-12 13:30N 34°08' E 134°52'5 9.1
2018-Jan-12 13:00N 34°08' E 134°46'6 8.9
2018-Jan-12 12:22N 34°11' E 134°41'411.4
2018-Jan-12 12:00N 34°15' E 134°39'5 8.9
2018-Jan-12 11:30N 34°17' E 134°33'5 9.1
2018-Jan-12 10:59N 34°19' E 134°28'4 9.2
2018-Jan-12 10:30N 34°20' E 134°23'83 3.4
2018-Jan-11 09:59N 34°01' E 132°46'4 8.6
2018-Jan-11 09:30N 33°58' E 132°43'5 9.0
2018-Jan-11 09:00N 33°55' E 132°39'44 8.6
2018-Jan-11 03:54N 33°46' E 131°47'3 7.9
2018-Jan-11 03:30N 33°47' E 131°44'4 8.4
2018-Jan-11 02:58N 33°48' E 131°38'4 8.6
2018-Jan-11 02:30N 33°49' E 131°34'4 8.6
2018-Jan-11 02:00N 33°50' E 131°29'5 9.1
2018-Jan-11 01:31N 33°51' E 131°23'5 9.0
2018-Jan-11 01:00N 33°51' E 131°18'5 9.3
2018-Jan-11 00:30N 33°53' E 131°13'5 9.2
2018-Jan-11 00:00N 33°55' E 131°08'4 8.9
2018-Jan-10 23:30N 33°57' E 131°03'4 8.0
2018-Jan-10 23:00N 33°58' E 130°59'4 7.6
2018-Jan-10 22:30N 33°55' E 130°56'3 5.5
2018-Jan-10 22:00N 33°56' E 130°53'4 7.5
2018-Jan-10 21:31N 33°59' E 130°50'4 7.1
2018-Jan-10 21:00N 34°02' E 130°49'4 8.3
2018-Jan-10 20:30N 34°04' E 130°45'4 8.3
2018-Jan-10 20:00N 34°07' E 130°41'4 8.4
2018-Jan-10 19:31N 34°09' E 130°36'4 8.5
2018-Jan-10 19:00N 34°11' E 130°32'4 8.5
2018-Jan-10 18:30N 34°14' E 130°28'4 8.5
2018-Jan-10 18:01N 34°16' E 130°23'4 8.4
2018-Jan-10 17:30N 34°19' E 130°19'4 8.7
2018-Jan-10 16:59N 34°21' E 130°15'  
Track history (hours):
 
Tides and Currents Weather Stations Pressure Air Temp Water Temp Dewpoint Dewpoint Depression Visibility Wind Speed Wind Dir Waves Ship Positions

Jangho Young

Last reported at 2018-Jan-19 00:49 UTC. Time now 2018-Jan-19 01:24 UTC.
Position N 34°09' E 135°11'.

Length 60 m; draft 4.3 m.

Type: Cargo ship. MMSI: 441245000.

Date/timePositionNaut miles runAvg speedWind from/ knotsBaromVisibWave heightAir tempDewpointWater temp
2018-Jan-19 00:49N 34°09' E 135°11'0 0.0
2018-Jan-19 00:28N 34°09' E 135°11'0 0.0
2018-Jan-18 23:58N 34°09' E 135°11'0 0.1
2018-Jan-18 23:22N 34°09' E 135°12'0 0.1
2018-Jan-18 22:58N 34°09' E 135°11'0 0.0
2018-Jan-18 22:28N 34°09' E 135°11'0 0.0
2018-Jan-18 21:58N 34°09' E 135°11'0 0.0
2018-Jan-18 21:25N 34°09' E 135°11'0 0.0
2018-Jan-18 20:55N 34°09' E 135°11'0 0.0
2018-Jan-18 20:22N 34°09' E 135°11'0 0.0
2018-Jan-18 19:58N 34°09' E 135°11'0 0.0
2018-Jan-18 19:22N 34°09' E 135°11'0 0.0
2018-Jan-18 18:55N 34°09' E 135°11'0 0.0
2018-Jan-18 18:28N 34°09' E 135°11'0 0.0
2018-Jan-18 17:58N 34°09' E 135°11'0 0.0
2018-Jan-18 17:28N 34°09' E 135°11'0 0.0
2018-Jan-18 16:58N 34°09' E 135°11'0 0.0
2018-Jan-18 16:28N 34°09' E 135°11'0 0.0
2018-Jan-18 15:58N 34°09' E 135°11'0 0.0
2018-Jan-18 15:28N 34°09' E 135°11'0 0.0
2018-Jan-18 14:58N 34°09' E 135°11'0 0.0
2018-Jan-18 14:28N 34°09' E 135°11'0 0.0
2018-Jan-18 13:58N 34°09' E 135°11'0 0.0
2018-Jan-18 13:28N 34°09' E 135°11'0 0.0
2018-Jan-18 12:58N 34°09' E 135°11'0 0.0
2018-Jan-18 12:28N 34°09' E 135°11'0 0.0
2018-Jan-18 11:46N 34°09' E 135°11'0 0.0
2018-Jan-18 11:28N 34°09' E 135°11'0 0.0
2018-Jan-18 10:58N 34°09' E 135°11'0 0.0
2018-Jan-18 10:28N 34°09' E 135°11'0 0.0
2018-Jan-18 09:58N 34°09' E 135°11'0 0.0
2018-Jan-18 09:28N 34°09' E 135°11'0 0.0
2018-Jan-18 08:58N 34°09' E 135°11'0 0.0
2018-Jan-18 08:28N 34°09' E 135°11'0 0.0
2018-Jan-18 07:58N 34°09' E 135°11'0 0.0
2018-Jan-18 07:22N 34°09' E 135°11'0 0.0
2018-Jan-18 06:58N 34°09' E 135°11'0 0.0
2018-Jan-18 06:10N 34°09' E 135°11'0 0.0
2018-Jan-18 05:58N 34°09' E 135°11'0 0.0
2018-Jan-18 05:28N 34°09' E 135°11'0 0.0
2018-Jan-18 04:40N 34°09' E 135°11'0 0.0
2018-Jan-18 04:25N 34°09' E 135°11'0 0.0
2018-Jan-18 03:49N 34°09' E 135°11'0 0.0
2018-Jan-18 03:25N 34°09' E 135°11'0 0.0
2018-Jan-18 02:49N 34°09' E 135°11'0 0.0
2018-Jan-18 02:25N 34°09' E 135°11'0 0.0
2018-Jan-18 01:49N 34°09' E 135°11'0 0.0
2018-Jan-18 01:25N 34°09' E 135°11'0 0.0
2018-Jan-18 00:25N 34°09' E 135°11'0 0.0
2018-Jan-17 23:49N 34°09' E 135°11'  
2018-Jan-12 15:00N 34°08' E 135°07'4 7.5
2018-Jan-12 14:30N 34°08' E 135°02'4 8.3
2018-Jan-12 14:00N 34°08' E 134°57'4 8.6
2018-Jan-12 13:30N 34°08' E 134°52'5 9.1
2018-Jan-12 13:00N 34°08' E 134°46'6 8.9
2018-Jan-12 12:22N 34°11' E 134°41'411.4
2018-Jan-12 12:00N 34°15' E 134°39'5 8.9
2018-Jan-12 11:30N 34°17' E 134°33'5 9.1
2018-Jan-12 10:59N 34°19' E 134°28'4 9.2
2018-Jan-12 10:30N 34°20' E 134°23'83 3.4
2018-Jan-11 09:59N 34°01' E 132°46'4 8.6
2018-Jan-11 09:30N 33°58' E 132°43'5 9.0
2018-Jan-11 09:00N 33°55' E 132°39'44 8.6
2018-Jan-11 03:54N 33°46' E 131°47'3 7.9
2018-Jan-11 03:30N 33°47' E 131°44'4 8.4
2018-Jan-11 02:58N 33°48' E 131°38'4 8.6
2018-Jan-11 02:30N 33°49' E 131°34'4 8.6
2018-Jan-11 02:00N 33°50' E 131°29'5 9.1
2018-Jan-11 01:31N 33°51' E 131°23'5 9.0
2018-Jan-11 01:00N 33°51' E 131°18'5 9.3
2018-Jan-11 00:30N 33°53' E 131°13'5 9.2
2018-Jan-11 00:00N 33°55' E 131°08'4 8.9
2018-Jan-10 23:30N 33°57' E 131°03'4 8.0
2018-Jan-10 23:00N 33°58' E 130°59'4 7.6
2018-Jan-10 22:30N 33°55' E 130°56'3 5.5
2018-Jan-10 22:00N 33°56' E 130°53'4 7.5
2018-Jan-10 21:31N 33°59' E 130°50'4 7.1
2018-Jan-10 21:00N 34°02' E 130°49'4 8.3
2018-Jan-10 20:30N 34°04' E 130°45'4 8.3
2018-Jan-10 20:00N 34°07' E 130°41'4 8.4
2018-Jan-10 19:31N 34°09' E 130°36'4 8.5
2018-Jan-10 19:00N 34°11' E 130°32'4 8.5
2018-Jan-10 18:30N 34°14' E 130°28'4 8.5
2018-Jan-10 18:01N 34°16' E 130°23'4 8.4
2018-Jan-10 17:30N 34°19' E 130°19'4 8.7
2018-Jan-10 16:59N 34°21' E 130°15'  

Dump ship's entire track history